Salida, California
Current Conditions -  °F | °C
As of 5:26 AM on Friday 28 Nov 2014 (Local Time) from KMOD Reporting Station
Haze Haze  
Wind Chill:   Ceiling: 1000
Heat Index:   Visibility: 1mi
Dew Point:   Wind: 5mph
Humidity: 93%   Direction: 120°ESE
Pressure: 29.99"   Gusts: NA
Location:  37.71°N, 121.09°W
Report Text: KMOD 281326Z AUTO 12004KT 1SM BR VV010 05/04 A2999 RMK AO2 T00500039
Loading
Personal Weather Stations






























Interactive Weather Map New forecast layout! Learn more

10-Day Weather Forecast

Advertisements
Track Severe Weather on mobile